createdAt,value
2022-10-11T00:00:44.429Z,100.00
2022-10-11T00:03:17.358Z,100.00
2022-10-11T00:05:50.862Z,99.69
2022-10-11T00:08:21.047Z,99.61
2022-10-11T00:11:01.637Z,99.78
2022-10-11T00:13:32.666Z,99.86
2022-10-11T00:16:03.696Z,99.99
2022-10-11T00:18:36.583Z,99.88
2022-10-11T00:21:12.102Z,99.78
2022-10-11T00:23:43.585Z,99.60
2022-10-11T00:26:15.220Z,99.60
2022-10-11T00:28:45.789Z,99.58
2022-10-11T00:31:18.586Z,99.95
2022-10-11T00:33:52.563Z,100.00
2022-10-11T00:36:22.966Z,100.00
2022-10-11T00:38:53.653Z,100.00
2022-10-11T00:41:26.030Z,100.00
2022-10-11T00:44:21.690Z,99.82
2022-10-11T00:46:58.100Z,99.87
2022-10-11T00:49:39.852Z,99.68
2022-10-11T00:52:18.401Z,99.57
2022-10-11T00:54:50.579Z,99.77
2022-10-11T00:57:24.539Z,99.76
2022-10-11T00:59:58.207Z,99.42
2022-10-11T01:02:30.436Z,99.58
2022-10-11T01:05:27.562Z,99.76
2022-10-11T01:07:57.095Z,100.00
2022-10-11T01:10:30.240Z,100.00
2022-10-11T01:13:12.075Z,99.78
2022-10-11T01:15:49.626Z,99.36
2022-10-11T01:18:29.166Z,99.03
2022-10-11T01:21:10.083Z,98.46
2022-10-11T01:24:19.188Z,99.00
2022-10-11T01:27:32.338Z,99.64
2022-10-11T01:30:20.897Z,99.72
2022-10-11T01:33:01.860Z,99.91
2022-10-11T01:35:34.778Z,99.50
2022-10-11T01:38:11.546Z,98.19
2022-10-11T01:40:51.857Z,97.50
2022-10-11T01:43:23.896Z,95.84
2022-10-11T01:45:59.674Z,95.89
2022-10-11T01:48:30.093Z,97.71
2022-10-11T01:51:05.412Z,98.39
2022-10-11T01:53:54.502Z,99.07
2022-10-11T01:56:41.382Z,99.16
2022-10-11T01:59:32.406Z,99.11
2022-10-11T02:02:16.583Z,97.94
2022-10-11T02:04:51.897Z,97.83
2022-10-11T02:07:31.221Z,97.92
2022-10-11T02:10:10.970Z,97.86
2022-10-11T02:12:46.850Z,96.66
2022-10-11T02:15:19.176Z,96.10
2022-10-11T02:17:59.186Z,96.63
2022-10-11T02:20:33.586Z,96.83
2022-10-11T02:23:09.621Z,97.25
2022-10-11T02:25:40.583Z,97.72
2022-10-11T02:28:13.726Z,97.31
2022-10-11T02:30:45.817Z,97.39
2022-10-11T02:33:25.647Z,96.97
2022-10-11T02:36:06.981Z,97.21
2022-10-11T02:38:45.490Z,96.65
2022-10-11T02:41:26.609Z,96.89
2022-10-11T02:44:03.136Z,96.76
2022-10-11T02:46:34.694Z,96.61
2022-10-11T02:49:07.876Z,96.29
2022-10-11T02:51:39.474Z,96.41
2022-10-11T02:54:09.793Z,96.07
2022-10-11T02:56:39.971Z,96.37
2022-10-11T02:59:10.219Z,96.83
2022-10-11T03:01:40.765Z,96.50
2022-10-11T03:04:13.649Z,97.05
2022-10-11T03:06:43.887Z,96.65
2022-10-11T03:09:15.821Z,97.54
2022-10-11T03:11:46.012Z,97.04
2022-10-11T03:14:16.225Z,97.13
2022-10-11T03:16:46.347Z,97.15
2022-10-11T03:19:19.506Z,96.58
2022-10-11T03:21:49.893Z,96.42
2022-10-11T03:24:20.399Z,96.59
2022-10-11T03:26:50.904Z,97.06
2022-10-11T03:29:21.266Z,96.64
2022-10-11T03:31:51.524Z,95.86
2022-10-11T03:34:24.394Z,95.48
2022-10-11T03:36:54.597Z,95.73
2022-10-11T03:39:24.750Z,93.70
2022-10-11T03:41:54.851Z,92.73
2022-10-11T03:44:24.940Z,93.64
2022-10-11T03:46:55.022Z,92.85
2022-10-11T03:49:28.045Z,92.64
2022-10-11T03:51:58.304Z,92.55
2022-10-11T03:54:29.171Z,92.97
2022-10-11T03:56:59.118Z,93.14
2022-10-11T03:59:29.401Z,93.73
2022-10-11T04:01:59.822Z,94.13
2022-10-11T04:04:32.871Z,93.40
2022-10-11T04:07:03.093Z,93.52
2022-10-11T04:09:33.780Z,93.96
2022-10-11T04:12:03.997Z,94.43
2022-10-11T04:14:34.176Z,94.26
2022-10-11T04:17:04.311Z,94.65
2022-10-11T04:19:37.404Z,94.31
2022-10-11T04:22:10.762Z,93.18
2022-10-11T04:24:41.161Z,92.18
2022-10-11T04:27:13.910Z,91.45
2022-10-11T04:29:44.254Z,90.85
2022-10-11T04:32:14.498Z,89.52
2022-10-11T04:34:47.331Z,89.07
2022-10-11T04:37:17.767Z,88.51
2022-10-11T04:39:48.619Z,87.11
2022-10-11T04:42:20.281Z,84.92
2022-10-11T04:44:50.770Z,85.48
2022-10-11T04:47:21.048Z,85.31
2022-10-11T04:49:53.978Z,84.40
2022-10-11T04:52:26.022Z,84.73
2022-10-11T04:54:56.378Z,84.99
2022-10-11T04:57:26.456Z,84.40
2022-10-11T04:59:56.609Z,83.72
2022-10-11T05:02:26.815Z,84.68
2022-10-11T05:04:59.871Z,84.64
2022-10-11T05:07:30.124Z,83.81
2022-10-11T05:10:00.684Z,84.42
2022-10-11T05:12:31.058Z,84.23
2022-10-11T05:15:01.385Z,83.83
2022-10-11T05:17:31.748Z,84.27
2022-10-11T05:20:04.869Z,84.27
2022-10-11T05:22:35.227Z,84.32
2022-10-11T05:25:05.469Z,84.61
2022-10-11T05:27:35.811Z,83.93
2022-10-11T05:30:07.584Z,83.54
2022-10-11T05:32:37.846Z,84.41
2022-10-11T05:35:12.223Z,84.39
2022-10-11T05:37:42.541Z,84.80
2022-10-11T05:40:14.399Z,85.64
2022-10-11T05:42:44.595Z,86.06
2022-10-11T05:45:14.713Z,86.40
2022-10-11T05:47:44.842Z,86.62
2022-10-11T05:50:20.803Z,87.14
2022-10-11T05:52:54.471Z,87.88
2022-10-11T05:55:24.861Z,88.05
2022-10-11T05:57:56.641Z,88.43
2022-10-11T06:00:28.060Z,88.20
2022-10-11T06:02:58.356Z,88.44
2022-10-11T06:05:31.267Z,88.80
2022-10-11T06:08:01.562Z,89.20
2022-10-11T06:10:31.899Z,89.75
2022-10-11T06:13:02.213Z,89.94
2022-10-11T06:15:32.688Z,89.58
2022-10-11T06:18:03.359Z,89.04
2022-10-11T06:20:36.372Z,88.56
2022-10-11T06:23:06.719Z,88.04
2022-10-11T06:25:36.930Z,87.68
2022-10-11T06:28:07.242Z,87.08
2022-10-11T06:30:37.565Z,86.43
2022-10-11T06:33:07.950Z,86.12
2022-10-11T06:35:40.846Z,86.66
2022-10-11T06:38:11.084Z,87.08
2022-10-11T06:40:41.458Z,87.32
2022-10-11T06:43:11.670Z,88.27
2022-10-11T06:45:41.847Z,87.17
2022-10-11T06:48:12.091Z,86.88
2022-10-11T06:50:59.506Z,86.69
2022-10-11T06:53:31.120Z,85.59
2022-10-11T06:56:06.533Z,84.84
2022-10-11T06:58:37.202Z,84.42
2022-10-11T07:01:10.782Z,83.86
2022-10-11T07:03:41.016Z,83.41
2022-10-11T07:06:17.078Z,82.72
2022-10-11T07:08:47.273Z,81.97
2022-10-11T07:11:21.092Z,82.21
2022-10-11T07:13:54.033Z,81.02
2022-10-11T07:16:25.378Z,80.70
2022-10-11T07:19:00.553Z,80.24
2022-10-11T07:21:36.640Z,80.25
2022-10-11T07:24:07.903Z,76.67
2022-10-11T07:26:39.106Z,73.90
2022-10-11T07:29:11.051Z,72.14
2022-10-11T07:31:44.193Z,71.92
2022-10-11T07:34:14.587Z,72.46
2022-10-11T07:36:47.453Z,73.10
2022-10-11T07:39:18.261Z,72.07
2022-10-11T07:41:48.552Z,71.84
2022-10-11T07:44:18.730Z,73.04
2022-10-11T07:46:48.930Z,73.16
2022-10-11T07:49:19.105Z,73.67
2022-10-11T07:51:52.245Z,74.10
2022-10-11T07:54:22.445Z,72.05
2022-10-11T07:56:52.789Z,68.88
2022-10-11T07:59:23.193Z,65.72
2022-10-11T08:01:53.794Z,67.32
2022-10-11T08:04:24.199Z,68.74
2022-10-11T08:06:57.092Z,66.36
2022-10-11T08:09:27.261Z,67.30
2022-10-11T08:11:57.372Z,64.51
2022-10-11T08:14:27.584Z,58.74
2022-10-11T08:16:57.755Z,57.23
2022-10-11T08:19:27.943Z,54.18
2022-10-11T08:22:00.853Z,49.85
2022-10-11T08:24:35.885Z,45.24
2022-10-11T08:27:11.374Z,46.47
2022-10-11T08:29:41.601Z,49.75
2022-10-11T08:32:12.616Z,52.81
2022-10-11T08:34:43.436Z,55.22
2022-10-11T08:37:17.083Z,58.14
2022-10-11T08:39:47.342Z,60.52
2022-10-11T08:42:29.605Z,61.99
2022-10-11T08:45:11.011Z,60.96
2022-10-11T08:47:46.200Z,60.00
2022-10-11T08:50:22.472Z,61.27
2022-10-11T08:52:59.531Z,61.97
2022-10-11T08:55:38.088Z,58.86
2022-10-11T08:58:08.608Z,49.61
2022-10-11T09:00:41.037Z,46.02
2022-10-11T09:03:26.771Z,43.20
2022-10-11T09:06:14.999Z,43.32
2022-10-11T09:09:06.596Z,42.78
2022-10-11T09:11:54.248Z,44.17
2022-10-11T09:14:52.311Z,43.02
2022-10-11T09:17:40.435Z,42.47
2022-10-11T09:20:38.529Z,42.53
2022-10-11T09:23:24.578Z,43.33
2022-10-11T09:26:03.880Z,43.90
2022-10-11T09:28:51.062Z,45.51
2022-10-11T09:31:21.420Z,46.79
2022-10-11T09:33:54.218Z,47.41
2022-10-11T09:36:33.467Z,48.94
2022-10-11T09:39:13.926Z,50.59
2022-10-11T09:41:56.734Z,48.71
2022-10-11T09:44:29.639Z,46.54
2022-10-11T09:47:01.172Z,43.27
2022-10-11T09:49:39.225Z,44.50
2022-10-11T09:52:17.249Z,45.23
2022-10-11T09:54:49.576Z,43.28
2022-10-11T09:57:29.068Z,41.91
2022-10-11T10:00:12.958Z,43.10
2022-10-11T10:02:47.005Z,45.10
2022-10-11T10:05:22.071Z,45.72
2022-10-11T10:08:25.460Z,46.14
2022-10-11T10:11:04.447Z,44.49
2022-10-11T10:13:46.892Z,40.67
2022-10-11T10:16:27.536Z,40.95
2022-10-11T10:19:00.145Z,39.88
2022-10-11T10:21:34.243Z,39.94
2022-10-11T10:24:09.166Z,42.36
2022-10-11T10:26:40.118Z,44.53
2022-10-11T10:29:21.269Z,46.30
2022-10-11T10:32:14.914Z,44.47
2022-10-11T10:35:02.650Z,42.54
2022-10-11T10:37:38.035Z,39.58
2022-10-11T10:40:13.285Z,37.99
2022-10-11T10:42:43.618Z,36.27
2022-10-11T10:45:22.144Z,35.43
2022-10-11T10:48:14.569Z,37.41
2022-10-11T10:50:53.293Z,37.90
2022-10-11T10:53:30.929Z,38.48
2022-10-11T10:56:09.670Z,38.75
2022-10-11T10:58:59.847Z,36.00
2022-10-11T11:01:35.955Z,32.67
2022-10-11T11:04:15.677Z,29.82
2022-10-11T11:06:52.864Z,28.21
2022-10-11T11:09:41.631Z,27.97
2022-10-11T11:12:27.989Z,25.52
2022-10-11T11:15:07.266Z,27.39
2022-10-11T11:17:57.768Z,29.89
2022-10-11T11:20:39.092Z,31.46
2022-10-11T11:23:18.043Z,32.26
2022-10-11T11:25:58.492Z,33.52
2022-10-11T11:28:40.090Z,33.99
2022-10-11T11:31:25.441Z,37.07
2022-10-11T11:34:09.327Z,38.82
2022-10-11T11:36:46.827Z,37.99
2022-10-11T11:39:23.799Z,33.86
2022-10-11T11:41:59.397Z,29.47
2022-10-11T11:44:34.932Z,26.51
2022-10-11T11:47:10.855Z,24.74
2022-10-11T11:49:49.360Z,24.63
2022-10-11T11:52:28.202Z,24.56
2022-10-11T11:55:07.616Z,23.92
2022-10-11T11:57:55.236Z,22.84
2022-10-11T12:00:28.506Z,22.15
2022-10-11T12:03:01.965Z,21.38
2022-10-11T12:05:37.538Z,21.17
2022-10-11T12:08:11.065Z,19.80
2022-10-11T12:10:57.715Z,18.77
2022-10-11T12:13:32.575Z,18.26
2022-10-11T12:16:14.105Z,18.73
2022-10-11T12:18:54.501Z,18.34
2022-10-11T12:21:33.545Z,18.48
2022-10-11T12:24:14.170Z,17.80
2022-10-11T12:26:47.466Z,17.61
2022-10-11T12:29:50.623Z,16.98
2022-10-11T12:32:52.085Z,15.96
2022-10-11T12:36:07.387Z,16.07
2022-10-11T12:38:42.535Z,16.64
2022-10-11T12:41:41.817Z,15.75
2022-10-11T12:44:24.627Z,16.23
2022-10-11T12:47:35.630Z,15.96
2022-10-11T12:50:19.101Z,15.78
2022-10-11T12:53:03.733Z,15.26
2022-10-11T12:55:49.975Z,15.25
2022-10-11T12:58:38.303Z,15.59
2022-10-11T13:01:22.811Z,15.25
2022-10-11T13:04:02.732Z,16.45
2022-10-11T13:06:38.294Z,17.02
2022-10-11T13:09:21.658Z,16.83
2022-10-11T13:11:59.181Z,15.88
2022-10-11T13:14:33.805Z,15.51
2022-10-11T13:17:16.009Z,15.93
2022-10-11T13:19:48.536Z,15.67
2022-10-11T13:22:26.324Z,16.02
2022-10-11T13:24:59.707Z,16.21
2022-10-11T13:27:32.829Z,16.83
2022-10-11T13:30:06.621Z,16.65
2022-10-11T13:32:39.457Z,17.08
2022-10-11T13:35:23.944Z,16.93
2022-10-11T13:37:55.443Z,18.16
2022-10-11T13:40:27.005Z,17.95
2022-10-11T13:43:00.571Z,19.45
2022-10-11T13:45:36.015Z,20.75
2022-10-11T13:48:06.589Z,22.69
2022-10-11T13:50:37.204Z,24.07
2022-10-11T13:53:26.128Z,23.80
2022-10-11T13:55:59.465Z,24.50
2022-10-11T13:58:38.786Z,25.68
2022-10-11T14:01:21.416Z,27.14
2022-10-11T14:03:59.602Z,28.11
2022-10-11T14:06:44.942Z,29.05
2022-10-11T14:09:23.907Z,29.08
2022-10-11T14:11:54.324Z,30.33
2022-10-11T14:14:43.441Z,30.95
2022-10-11T14:17:19.296Z,31.48
2022-10-11T14:20:21.439Z,32.14
2022-10-11T14:22:54.637Z,33.17
2022-10-11T14:25:25.239Z,34.21
2022-10-11T14:27:55.593Z,34.97
2022-10-11T14:30:31.629Z,34.43
2022-10-11T14:33:04.741Z,34.61
2022-10-11T14:35:40.373Z,34.79
2022-10-11T14:38:12.870Z,35.07
2022-10-11T14:40:43.108Z,35.12
2022-10-11T14:43:13.331Z,35.07
2022-10-11T14:45:43.518Z,35.24
2022-10-11T14:48:13.687Z,35.44
2022-10-11T14:50:51.544Z,36.60
2022-10-11T14:53:22.454Z,37.82
2022-10-11T14:55:53.366Z,37.85
2022-10-11T14:58:23.624Z,37.82
2022-10-11T15:00:53.788Z,38.10
2022-10-11T15:03:24.047Z,38.32
2022-10-11T15:05:58.205Z,39.24
2022-10-11T15:08:28.350Z,38.37
2022-10-11T15:10:58.547Z,37.95
2022-10-11T15:13:28.854Z,37.41
2022-10-11T15:15:59.358Z,36.87
2022-10-11T15:18:29.527Z,37.40
2022-10-11T15:21:02.330Z,37.95
2022-10-11T15:23:32.784Z,39.01
2022-10-11T15:26:03.086Z,39.24
2022-10-11T15:28:36.040Z,39.37
2022-10-11T15:31:06.331Z,39.88
2022-10-11T15:33:36.574Z,40.78
2022-10-11T15:36:13.368Z,41.58
2022-10-11T15:38:44.203Z,42.82
2022-10-11T15:41:15.807Z,43.03
2022-10-11T15:43:49.597Z,42.84
2022-10-11T15:46:22.795Z,44.37
2022-10-11T15:48:54.384Z,44.73
2022-10-11T15:51:27.643Z,44.55
2022-10-11T15:53:57.951Z,44.75
2022-10-11T15:56:32.967Z,45.39
2022-10-11T15:59:04.149Z,46.43
2022-10-11T16:01:34.373Z,46.80
2022-10-11T16:04:04.600Z,47.04
2022-10-11T16:06:37.420Z,47.74
2022-10-11T16:09:07.702Z,48.20
2022-10-11T16:11:37.936Z,49.47
2022-10-11T16:14:08.133Z,49.43
2022-10-11T16:16:38.364Z,51.77
2022-10-11T16:19:08.553Z,52.27
2022-10-11T16:21:41.422Z,53.65
2022-10-11T16:24:11.845Z,55.47
2022-10-11T16:26:42.152Z,56.33
2022-10-11T16:29:12.424Z,57.36
2022-10-11T16:31:42.596Z,57.51
2022-10-11T16:34:12.885Z,58.30
2022-10-11T16:36:45.999Z,58.67
2022-10-11T16:39:20.146Z,59.12
2022-10-11T16:41:50.756Z,59.21
2022-10-11T16:44:25.310Z,60.10
2022-10-11T16:46:55.574Z,60.34
2022-10-11T16:49:28.990Z,59.86
2022-10-11T16:52:04.097Z,60.10
2022-10-11T16:54:34.910Z,60.35
2022-10-11T16:57:05.082Z,60.39
2022-10-11T16:59:35.402Z,60.18
2022-10-11T17:02:06.204Z,60.65
2022-10-11T17:04:36.679Z,60.88
2022-10-11T17:07:12.543Z,61.11
2022-10-11T17:09:44.279Z,61.72
2022-10-11T17:12:16.599Z,61.91
2022-10-11T17:14:47.074Z,62.63
2022-10-11T17:17:17.699Z,63.42
2022-10-11T17:19:48.299Z,63.51
2022-10-11T17:22:22.744Z,63.60
2022-10-11T17:24:52.914Z,63.36
2022-10-11T17:27:23.335Z,63.86
2022-10-11T17:29:53.543Z,63.99
2022-10-11T17:32:23.682Z,64.32
2022-10-11T17:34:53.980Z,64.53
2022-10-11T17:37:26.826Z,65.07
2022-10-11T17:39:57.916Z,66.05
2022-10-11T17:42:28.125Z,66.43
2022-10-11T17:44:58.324Z,66.73
2022-10-11T17:47:28.522Z,66.08
2022-10-11T17:49:58.614Z,66.13
2022-10-11T17:52:31.420Z,66.68
2022-10-11T17:55:01.557Z,66.85
2022-10-11T17:57:31.761Z,66.97
2022-10-11T18:00:02.152Z,67.33
2022-10-11T18:02:34.907Z,66.95
2022-10-11T18:05:05.330Z,67.77
2022-10-11T18:07:38.188Z,68.27
2022-10-11T18:10:09.832Z,68.27
2022-10-11T18:12:40.508Z,68.19
2022-10-11T18:15:13.044Z,68.45
2022-10-11T18:17:43.160Z,67.29
2022-10-11T18:20:14.796Z,66.91
2022-10-11T18:22:47.516Z,68.15
2022-10-11T18:25:17.887Z,69.40
2022-10-11T18:27:48.159Z,69.49
2022-10-11T18:30:18.541Z,69.34
2022-10-11T18:32:48.764Z,69.49
2022-10-11T18:35:19.178Z,70.41
2022-10-11T18:38:00.027Z,70.89
2022-10-11T18:40:31.102Z,70.23
2022-10-11T18:43:01.292Z,69.79
2022-10-11T18:45:31.430Z,70.08
2022-10-11T18:48:01.722Z,70.10
2022-10-11T18:50:35.052Z,70.10
2022-10-11T18:53:07.792Z,71.13
2022-10-11T18:55:37.873Z,70.88
2022-10-11T18:58:07.973Z,70.93
2022-10-11T19:00:41.181Z,71.19
2022-10-11T19:03:11.719Z,71.40
2022-10-11T19:05:42.182Z,71.55
2022-10-11T19:08:15.024Z,71.75
2022-10-11T19:10:45.123Z,71.84
2022-10-11T19:13:15.241Z,72.31
2022-10-11T19:15:45.401Z,73.32
2022-10-11T19:18:20.257Z,73.28
2022-10-11T19:20:50.593Z,73.38
2022-10-11T19:23:23.781Z,73.84
2022-10-11T19:25:53.870Z,73.57
2022-10-11T19:28:24.054Z,73.42
2022-10-11T19:30:54.234Z,73.55
2022-10-11T19:33:24.372Z,73.42
2022-10-11T19:35:57.733Z,73.29
2022-10-11T19:38:30.446Z,73.49
2022-10-11T19:41:00.607Z,73.61
2022-10-11T19:43:31.179Z,73.57
2022-10-11T19:46:05.741Z,73.56
2022-10-11T19:48:39.283Z,74.20
2022-10-11T19:51:12.712Z,75.32
2022-10-11T19:53:46.501Z,74.92
2022-10-11T19:56:19.667Z,74.58
2022-10-11T19:58:49.755Z,75.25
2022-10-11T20:01:23.119Z,75.70
2022-10-11T20:03:55.878Z,75.46
2022-10-11T20:06:28.349Z,74.82
2022-10-11T20:09:27.445Z,74.83
2022-10-11T20:11:51.740Z,75.05
2022-10-11T20:14:21.930Z,75.52
2022-10-11T20:16:53.350Z,75.78
2022-10-11T20:19:30.543Z,76.03
2022-10-11T20:22:02.607Z,76.23
2022-10-11T20:24:35.663Z,76.20
2022-10-11T20:27:07.179Z,76.33
2022-10-11T20:29:37.282Z,77.06
2022-10-11T20:32:07.512Z,77.21
2022-10-11T20:34:39.603Z,77.07
2022-10-11T20:37:09.855Z,77.10
2022-10-11T20:39:42.651Z,77.19
2022-10-11T20:42:12.824Z,77.39
2022-10-11T20:44:43.846Z,77.25
2022-10-11T20:47:13.990Z,77.49
2022-10-11T20:49:44.089Z,78.07
2022-10-11T20:52:14.263Z,78.08
2022-10-11T20:54:47.030Z,78.38
2022-10-11T20:57:17.151Z,77.21
2022-10-11T20:59:47.843Z,77.38
2022-10-11T21:02:19.051Z,77.68
2022-10-11T21:04:49.320Z,77.97
2022-10-11T21:07:19.435Z,78.05
2022-10-11T21:09:52.195Z,78.42
2022-10-11T21:12:22.230Z,78.70
2022-10-11T21:14:52.378Z,78.78
2022-10-11T21:17:22.511Z,79.33
2022-10-11T21:19:52.626Z,79.15
2022-10-11T21:22:22.934Z,79.51
2022-10-11T21:24:55.692Z,79.44
2022-10-11T21:27:25.848Z,79.61
2022-10-11T21:29:56.241Z,79.76
2022-10-11T21:32:26.983Z,79.79
2022-10-11T21:34:57.133Z,80.53
2022-10-11T21:37:27.348Z,80.64
2022-10-11T21:40:00.149Z,80.38
2022-10-11T21:42:30.333Z,80.12
2022-10-11T21:45:00.803Z,79.97
2022-10-11T21:47:31.563Z,79.23
2022-10-11T21:50:01.920Z,79.11
2022-10-11T21:52:32.234Z,79.56
2022-10-11T21:55:05.163Z,79.44
2022-10-11T21:57:35.345Z,79.40
2022-10-11T22:00:05.768Z,78.96
2022-10-11T22:02:43.622Z,79.03
2022-10-11T22:05:13.855Z,78.54
2022-10-11T22:07:43.994Z,78.85
2022-10-11T22:10:16.691Z,79.22
2022-10-11T22:12:49.648Z,79.63
2022-10-11T22:15:20.072Z,80.10
2022-10-11T22:17:50.206Z,80.35
2022-10-11T22:20:20.731Z,80.71
2022-10-11T22:22:50.976Z,80.96
2022-10-11T22:25:24.012Z,81.14
2022-10-11T22:27:54.140Z,80.99
2022-10-11T22:30:24.182Z,81.21
2022-10-11T22:32:54.642Z,81.07
2022-10-11T22:35:24.777Z,81.13
2022-10-11T22:37:55.652Z,81.37
2022-10-11T22:40:31.422Z,81.75
2022-10-11T22:43:01.558Z,81.29
2022-10-11T22:45:34.682Z,81.27
2022-10-11T22:48:04.918Z,81.66
2022-10-11T22:50:35.069Z,81.42
2022-10-11T22:53:05.194Z,81.74
2022-10-11T22:55:38.733Z,81.71
2022-10-11T22:58:09.131Z,81.07
2022-10-11T23:00:39.771Z,81.47
2022-10-11T23:03:10.173Z,81.50
2022-10-11T23:05:41.572Z,81.21
2022-10-11T23:08:12.292Z,80.76
2022-10-11T23:10:45.178Z,80.87
2022-10-11T23:13:15.260Z,81.03
2022-10-11T23:15:45.486Z,80.71
2022-10-11T23:18:18.266Z,80.68
2022-10-11T23:20:51.098Z,80.59
2022-10-11T23:23:21.394Z,80.60
2022-10-11T23:26:06.764Z,81.09
2022-10-11T23:28:37.295Z,81.42
2022-10-11T23:31:12.587Z,81.87
2022-10-11T23:33:42.765Z,82.05
2022-10-11T23:36:18.041Z,82.22
2022-10-11T23:38:54.307Z,82.56
2022-10-11T23:41:29.912Z,82.25
2022-10-11T23:44:00.953Z,82.39
2022-10-11T23:46:31.030Z,82.66
2022-10-11T23:49:01.317Z,82.73
2022-10-11T23:51:31.580Z,83.67
2022-10-11T23:54:03.842Z,83.50
2022-10-11T23:56:36.837Z,83.46
2022-10-11T23:59:07.029Z,83.34
